Time;durP1;ratioP1;P1;durP2;ratioP2;P2;SDS_P1;SDS_P2;PMS_P1;PMS_P2;Temp;Humidity;BMP_temperature;BMP_pressure;BME280_temperature;BME280_humidity;BME280_pressure;Samples;Min_cycle;Max_cycle;Signal;HPM_P1;HPM_P2
2022/09/17 00:01:45;;;;;;;9.50;2.60;;;;;;;-145.01;100.00;64805.59;5055439;28;20029;-55
2022/09/17 00:04:11;;;;;;;10.32;2.90;;;;;;;-145.01;100.00;64805.59;5058304;28;20045;-55
2022/09/17 00:06:36;;;;;;;10.38;2.97;;;;;;;-145.01;100.00;64805.59;5064283;28;20051;-54
2022/09/17 00:09:03;;;;;;;14.18;3.35;;;;;;;-145.01;100.00;64805.59;5051098;28;20025;-55
2022/09/17 00:11:30;;;;;;;13.55;2.88;;;;;;;-145.01;100.00;64805.59;5049751;28;20036;-55
2022/09/17 00:13:57;;;;;;;10.35;2.83;;;;;;;-145.01;100.00;64805.59;5050524;28;20029;-54
2022/09/17 00:16:30;;;;;;;6.85;2.88;;;;;;;-145.01;100.00;64805.59;5057605;28;20098;-53
2022/09/17 00:18:55;;;;;;;14.48;2.78;;;;;;;-145.01;100.00;64805.59;5052297;28;20537;-55
2022/09/17 00:21:21;;;;;;;8.23;3.33;;;;;;;-145.01;100.00;64805.59;5057349;28;20029;-52
2022/09/17 00:23:47;;;;;;;13.65;3.90;;;;;;;-145.01;100.00;64805.59;5050536;28;20027;-54
2022/09/17 00:26:12;;;;;;;10.85;3.22;;;;;;;-145.01;100.00;64805.59;5050579;28;20052;-54
2022/09/17 00:28:38;;;;;;;13.25;3.20;;;;;;;-145.01;100.00;64805.59;5054066;28;20099;-56
2022/09/17 00:31:07;;;;;;;14.88;3.50;;;;;;;-145.01;100.00;64805.59;5050649;28;20025;-55
2022/09/17 00:33:33;;;;;;;13.65;3.35;;;;;;;-145.01;100.00;64805.59;5052244;28;20108;-55
2022/09/17 00:35:59;;;;;;;12.63;3.10;;;;;;;-145.01;100.00;64805.59;5056003;28;20076;-54
2022/09/17 00:38:25;;;;;;;9.68;3.40;;;;;;;-145.01;100.00;64805.59;5082586;28;20024;-54
2022/09/17 00:40:50;;;;;;;7.43;2.88;;;;;;;-145.01;100.00;64805.59;5049221;28;20036;-54
2022/09/17 00:43:37;;;;;;;12.13;3.13;;;;;;;-145.01;100.00;64805.59;5057443;28;20407;-53
2022/09/17 00:46:04;;;;;;;13.20;2.70;;;;;;;-145.01;100.00;64805.59;5051202;28;20029;-54
2022/09/17 00:48:30;;;;;;;9.57;3.33;;;;;;;-145.01;100.00;64805.59;5052903;28;20131;-54
2022/09/17 00:50:55;;;;;;;16.75;3.10;;;;;;;-145.01;100.00;64805.59;5054991;28;20436;-54
2022/09/17 00:53:20;;;;;;;9.23;2.97;;;;;;;-145.01;100.00;64805.59;5055997;28;20021;-54
2022/09/17 00:55:48;;;;;;;14.57;3.65;;;;;;;-145.01;100.00;64805.59;5054431;28;20407;-54
2022/09/17 00:58:14;;;;;;;7.72;3.20;;;;;;;-145.01;100.00;64805.59;5049978;28;20033;-54
2022/09/17 01:00:40;;;;;;;21.50;3.80;;;;;;;-145.01;100.00;64805.59;5054503;28;20029;-54
2022/09/17 01:03:05;;;;;;;12.35;3.17;;;;;;;-145.01;100.00;64805.59;5053890;28;20055;-54
2022/09/17 01:05:36;;;;;;;9.15;3.22;;;;;;;-145.01;100.00;64805.59;5052855;28;20047;-53
2022/09/17 01:08:19;;;;;;;12.30;3.30;;;;;;;-145.01;100.00;64805.59;5048742;28;20487;-54
2022/09/17 01:11:03;;;;;;;9.23;3.15;;;;;;;-145.01;100.00;64805.59;5047559;28;20115;-53
2022/09/17 01:13:47;;;;;;;10.52;3.00;;;;;;;-145.01;100.00;64805.59;5054200;28;20028;-53
2022/09/17 01:16:20;;;;;;;11.52;3.15;;;;;;;-145.01;100.00;64805.59;5049737;28;20036;-53
2022/09/17 01:19:23;;;;;;;16.17;3.20;;;;;;;-145.01;100.00;64805.59;5065131;28;20029;-54
2022/09/17 01:22:10;;;;;;;9.20;3.00;;;;;;;-145.01;100.00;64805.59;5053680;28;20519;-56
2022/09/17 01:25:05;;;;;;;19.65;3.40;;;;;;;-145.01;100.00;64805.59;5049786;28;20406;-53
2022/09/17 01:27:49;;;;;;;15.60;3.80;;;;;;;-145.01;100.00;64805.59;5046021;28;20128;-56
2022/09/17 01:30:54;;;;;;;10.55;3.45;;;;;;;-145.01;100.00;64805.59;5054328;28;20029;-55
2022/09/17 01:33:32;;;;;;;8.35;2.90;;;;;;;-145.01;100.00;64805.59;5055562;28;20128;-55
2022/09/17 01:36:44;;;;;;;17.35;3.58;;;;;;;-145.01;100.00;64805.59;5056257;28;20075;-54
2022/09/17 01:39:12;;;;;;;10.73;3.13;;;;;;;-145.01;100.00;64805.59;5019267;28;20134;-55
2022/09/17 01:41:52;;;;;;;16.73;3.55;;;;;;;-145.01;100.00;64805.59;5049243;28;20024;-55
2022/09/17 01:44:18;;;;;;;9.10;3.17;;;;;;;-145.01;100.00;64805.59;5051857;28;20048;-54
2022/09/17 01:46:46;;;;;;;13.55;2.90;;;;;;;-145.01;100.00;64805.59;5052685;28;20075;-54
2022/09/17 01:49:12;;;;;;;15.13;3.28;;;;;;;-145.01;100.00;64805.59;5031400;28;20029;-55
2022/09/17 01:51:39;;;;;;;11.10;3.40;;;;;;;-145.01;100.00;64805.59;5059104;28;20029;-53
2022/09/17 01:54:24;;;;;;;13.02;3.13;;;;;;;-145.01;100.00;64805.59;5037916;28;20029;-54
2022/09/17 01:57:00;;;;;;;11.70;3.75;;;;;;;-145.01;100.00;64805.59;5058741;28;20088;-54
2022/09/17 01:59:41;;;;;;;17.95;3.92;;;;;;;-145.01;100.00;64805.59;5036679;28;20036;-54
2022/09/17 02:02:10;;;;;;;;;;;;;;;-145.01;100.00;64805.59;5061434;28;20060;-54
2022/09/17 02:04:40;;;;;;;9.35;3.40;;;;;;;-145.01;100.00;64805.59;5051063;28;19956;-53
2022/09/17 02:07:13;;;;;;;13.38;3.25;;;;;;;-145.01;100.00;64805.59;5037556;28;20078;-55
2022/09/17 02:09:43;;;;;;;10.77;3.13;;;;;;;-145.01;100.00;64805.59;5049390;28;20025;-57
2022/09/17 02:12:14;;;;;;;10.77;3.10;;;;;;;-145.01;100.00;64805.59;5064586;28;20051;-55
2022/09/17 02:14:49;;;;;;;10.85;3.65;;;;;;;-145.01;100.00;64805.59;5036423;28;20499;-54
2022/09/17 02:17:34;;;;;;;8.43;3.17;;;;;;;-145.01;100.00;64805.59;5053290;28;20041;-54
2022/09/17 02:19:59;;;;;;;12.65;3.00;;;;;;;-145.01;100.00;64805.59;5057176;28;20039;-53
2022/09/17 02:22:37;;;;;;;8.57;2.80;;;;;;;-145.01;100.00;64805.59;5053080;28;20028;-54
2022/09/17 02:25:06;;;;;;;12.63;3.17;;;;;;;-145.01;100.00;64805.59;5052059;28;20131;-54
2022/09/17 02:27:37;;;;;;;9.73;3.10;;;;;;;-145.01;100.00;64805.59;5057205;28;20060;-54
2022/09/17 02:30:04;;;;;;;15.13;3.85;;;;;;;-145.01;100.00;64805.59;5058701;28;20761;-54
2022/09/17 02:32:29;;;;;;;19.40;3.47;;;;;;;-145.01;100.00;64805.59;5085504;28;20071;-52
2022/09/17 02:34:55;;;;;;;11.35;3.17;;;;;;;-145.01;100.00;64805.59;5054689;28;20051;-54
2022/09/17 02:37:20;;;;;;;13.30;3.35;;;;;;;-145.01;100.00;64805.59;5063472;28;20122;-56
2022/09/17 02:39:46;;;;;;;14.73;3.20;;;;;;;-145.01;100.00;64805.59;5044662;28;20040;-56
2022/09/17 02:42:27;;;;;;;11.90;3.30;;;;;;;-145.01;100.00;64805.59;5060051;28;20036;-56
2022/09/17 02:45:11;;;;;;;9.82;2.80;;;;;;;-145.01;100.00;64805.59;5035422;28;20025;-55
2022/09/17 02:48:00;;;;;;;9.45;3.10;;;;;;;-145.01;100.00;64805.59;5061733;28;20020;-55
2022/09/17 02:50:35;;;;;;;10.93;3.30;;;;;;;-145.01;100.00;64805.59;5045178;28;20559;-54
2022/09/17 02:53:39;;;;;;;15.95;4.15;;;;;;;-145.01;100.00;64805.59;5052925;28;20025;-54
2022/09/17 02:56:24;;;;;;;12.30;3.55;;;;;;;-145.01;100.00;64805.59;5051531;28;20371;-54
2022/09/17 02:59:01;;;;;;;17.67;3.30;;;;;;;-145.01;100.00;64805.59;5053661;28;20501;-54
2022/09/17 03:01:40;;;;;;;10.73;3.22;;;;;;;-145.01;100.00;64805.59;5052144;28;20086;-54
2022/09/17 03:04:06;;;;;;;17.13;3.78;;;;;;;-145.01;100.00;64805.59;5038997;28;20052;-54
2022/09/17 03:06:32;;;;;;;11.65;3.00;;;;;;;-145.01;100.00;64805.59;5041651;28;20418;-54
2022/09/17 03:08:57;;;;;;;12.60;3.40;;;;;;;-145.01;100.00;64805.59;5050838;28;20025;-55
2022/09/17 03:11:23;;;;;;;17.58;3.67;;;;;;;-145.01;100.00;64805.59;5051999;28;20033;-53
2022/09/17 03:13:49;;;;;;;9.57;3.13;;;;;;;-145.01;100.00;64805.59;5060899;28;20546;-54
2022/09/17 03:16:14;;;;;;;17.13;3.70;;;;;;;-145.01;100.00;64805.59;5058554;28;20036;-54
2022/09/17 03:18:39;;;;;;;19.15;3.50;;;;;;;-145.01;100.00;64805.59;5059791;28;20017;-55
2022/09/17 03:21:05;;;;;;;13.25;3.45;;;;;;;-145.01;100.00;64805.59;5056370;28;20040;-55
2022/09/17 03:23:31;;;;;;;32.42;3.80;;;;;;;-145.01;100.00;64805.59;5052012;28;20032;-54
2022/09/17 03:25:58;;;;;;;15.80;3.45;;;;;;;-145.01;100.00;64805.59;5051722;28;20033;-55
2022/09/17 03:28:25;;;;;;;15.57;3.20;;;;;;;-145.01;100.00;64805.59;5055650;28;20048;-54
2022/09/17 03:30:51;;;;;;;13.25;4.00;;;;;;;-145.01;100.00;64805.59;5057745;28;20020;-54
2022/09/17 03:33:16;;;;;;;13.23;3.38;;;;;;;-145.01;100.00;64805.59;5057020;28;20425;-54
2022/09/17 03:35:42;;;;;;;11.93;3.83;;;;;;;-145.01;100.00;64805.59;5056707;28;20029;-55
2022/09/17 03:38:08;;;;;;;16.90;3.85;;;;;;;-145.01;100.00;64805.59;5052222;28;20040;-55
2022/09/17 03:40:33;;;;;;;13.15;3.50;;;;;;;-145.01;100.00;64805.59;5054461;28;20059;-55
2022/09/17 03:42:59;;;;;;;18.33;3.40;;;;;;;-145.01;100.00;64805.59;5057121;28;20060;-54
2022/09/17 03:45:24;;;;;;;17.58;3.30;;;;;;;-145.01;100.00;64805.59;5060255;28;20029;-55
2022/09/17 03:47:49;;;;;;;12.10;3.60;;;;;;;-145.01;100.00;64805.59;5056971;28;20426;-52
2022/09/17 03:50:15;;;;;;;16.60;3.88;;;;;;;-145.01;100.00;64805.59;5055000;28;20933;-53
2022/09/17 03:52:42;;;;;;;17.63;3.42;;;;;;;-145.01;100.00;64805.59;5051357;28;20423;-55
2022/09/17 03:55:07;;;;;;;24.63;3.88;;;;;;;-145.01;100.00;64805.59;5050707;28;20028;-56
2022/09/17 03:57:33;;;;;;;21.75;3.63;;;;;;;-145.01;100.00;64805.59;5056206;28;20387;-55
2022/09/17 03:59:58;;;;;;;18.75;3.40;;;;;;;-145.01;100.00;64805.59;5053973;28;20383;-55
2022/09/17 04:02:24;;;;;;;22.13;3.60;;;;;;;-145.01;100.00;64805.59;5056994;28;20402;-54
2022/09/17 04:04:49;;;;;;;27.70;3.90;;;;;;;-145.01;100.00;64805.59;5052107;28;20040;-56
2022/09/17 04:07:14;;;;;;;18.15;3.60;;;;;;;-145.01;100.00;64805.59;5061486;28;20031;-56
2022/09/17 04:09:40;;;;;;;20.60;3.90;;;;;;;-145.01;100.00;64805.59;5057315;28;20033;-55
2022/09/17 04:12:05;;;;;;;24.38;4.03;;;;;;;-145.01;100.00;64805.59;5050695;28;20025;-56
2022/09/17 04:14:31;;;;;;;18.42;3.30;;;;;;;-145.01;100.00;64805.59;5052851;28;20037;-56
2022/09/17 04:16:57;;;;;;;24.17;4.10;;;;;;;-145.01;100.00;64805.59;5060679;28;20020;-53
2022/09/17 04:19:23;;;;;;;15.77;3.90;;;;;;;-145.01;100.00;64805.59;5055285;28;20568;-56
2022/09/17 04:21:48;;;;;;;22.55;3.55;;;;;;;-145.01;100.00;64805.59;5055539;28;20044;-52
2022/09/17 04:24:13;;;;;;;12.85;3.63;;;;;;;-145.01;100.00;64805.59;5050668;28;20040;-54
2022/09/17 04:26:39;;;;;;;18.17;3.47;;;;;;;-145.01;100.00;64805.59;5054628;28;20020;-55
2022/09/17 04:29:04;;;;;;;16.35;4.05;;;;;;;-145.01;100.00;64805.59;5051563;28;20028;-54
2022/09/17 04:31:30;;;;;;;21.02;3.35;;;;;;;-145.01;100.00;64805.59;5057313;28;20111;-54
2022/09/17 04:33:55;;;;;;;22.15;3.58;;;;;;;-145.01;100.00;64805.59;5053961;28;20136;-55
2022/09/17 04:36:21;;;;;;;20.08;3.60;;;;;;;-145.01;100.00;64805.59;5054912;28;20643;-56
2022/09/17 04:38:49;;;;;;;16.60;3.85;;;;;;;-145.01;100.00;64805.59;5053309;28;20085;-54
2022/09/17 04:41:15;;;;;;;26.60;4.53;;;;;;;-145.01;100.00;64805.59;5054815;28;20127;-53
2022/09/17 04:43:40;;;;;;;12.70;3.38;;;;;;;-145.01;100.00;64805.59;5050511;28;20021;-55
2022/09/17 04:46:06;;;;;;;14.38;3.72;;;;;;;-145.01;100.00;64805.59;5050453;28;20033;-54
2022/09/17 04:48:31;;;;;;;16.02;3.40;;;;;;;-145.01;100.00;64805.59;5050144;28;20036;-52
2022/09/17 04:50:57;;;;;;;22.35;3.67;;;;;;;-145.01;100.00;64805.59;5050133;28;20017;-53
2022/09/17 04:53:22;;;;;;;28.25;5.13;;;;;;;-145.01;100.00;64805.59;5049878;28;20047;-55
2022/09/17 04:55:48;;;;;;;16.48;4.18;;;;;;;-145.01;100.00;64805.59;5061886;28;20511;-55
2022/09/17 04:58:13;;;;;;;18.27;4.03;;;;;;;-145.01;100.00;64805.59;5055507;28;20024;-55
2022/09/17 05:00:40;;;;;;;16.55;2.85;;;;;;;-145.01;100.00;64805.59;5058774;28;20391;-55
2022/09/17 05:03:06;;;;;;;15.98;3.45;;;;;;;-145.01;100.00;64805.59;5069183;28;20095;-54
2022/09/17 05:05:31;;;;;;;15.90;3.20;;;;;;;-145.01;100.00;64805.59;5051381;28;20056;-55
2022/09/17 05:07:57;;;;;;;14.70;3.67;;;;;;;-145.01;100.00;64805.59;5049749;28;20028;-54
2022/09/17 05:10:22;;;;;;;20.90;3.30;;;;;;;-145.01;100.00;64805.59;5055207;28;20025;-55
2022/09/17 05:12:52;;;;;;;17.30;3.55;;;;;;;-145.01;100.00;64805.59;5050795;28;20394;-53
2022/09/17 05:15:17;;;;;;;15.80;3.20;;;;;;;-145.01;100.00;64805.59;5059476;28;20036;-55
2022/09/17 05:17:43;;;;;;;21.83;3.45;;;;;;;-145.01;100.00;64805.59;5056074;28;20124;-54
2022/09/17 05:20:09;;;;;;;19.45;3.25;;;;;;;-145.01;100.00;64805.59;5059047;28;20413;-54
2022/09/17 05:22:34;;;;;;;10.95;2.92;;;;;;;-145.01;100.00;64805.59;5052129;28;20025;-54
2022/09/17 05:24:59;;;;;;;15.32;3.72;;;;;;;-145.01;100.00;64805.59;5032235;28;20032;-55
2022/09/17 05:27:25;;;;;;;13.68;2.97;;;;;;;-145.01;100.00;64805.59;5055410;28;20029;-55
2022/09/17 05:29:50;;;;;;;14.55;3.20;;;;;;;-145.01;100.00;64805.59;5055915;28;20029;-55
2022/09/17 05:32:16;;;;;;;19.15;3.30;;;;;;;-145.01;100.00;64805.59;5055002;28;20041;-54
2022/09/17 05:34:41;;;;;;;15.40;2.97;;;;;;;-145.01;100.00;64805.59;5055248;28;20044;-54
2022/09/17 05:37:10;;;;;;;16.67;2.95;;;;;;;-145.01;100.00;64805.59;5049651;28;20025;-55
2022/09/17 05:39:35;;;;;;;12.80;3.22;;;;;;;-145.01;100.00;64805.59;5049972;28;20071;-55
2022/09/17 05:42:01;;;;;;;18.00;3.45;;;;;;;-145.01;100.00;64805.59;5054295;28;20028;-56
2022/09/17 05:44:27;;;;;;;21.00;4.03;;;;;;;-145.01;100.00;64805.59;5049924;28;20510;-53
2022/09/17 05:46:52;;;;;;;15.63;3.17;;;;;;;-145.01;100.00;64805.59;5056368;28;20490;-54
2022/09/17 05:49:18;;;;;;;14.50;3.08;;;;;;;-145.01;100.00;64805.59;5055310;28;20261;-55
2022/09/17 05:51:43;;;;;;;24.63;3.33;;;;;;;-145.01;100.00;64805.59;5049589;28;20028;-55
2022/09/17 05:54:09;;;;;;;17.35;3.03;;;;;;;-145.01;100.00;64805.59;5049567;28;20029;-55
2022/09/17 05:56:34;;;;;;;23.48;3.50;;;;;;;-145.01;100.00;64805.59;5056734;28;20044;-55
2022/09/17 05:59:00;;;;;;;22.48;3.15;;;;;;;-145.01;100.00;64805.59;5057206;28;20464;-54
2022/09/17 06:01:25;;;;;;;23.95;3.35;;;;;;;-145.01;100.00;64805.59;5060771;28;20033;-54
2022/09/17 06:03:51;;;;;;;15.07;2.83;;;;;;;-145.01;100.00;64805.59;5059112;28;20044;-55
2022/09/17 06:06:16;;;;;;;27.30;4.07;;;;;;;-145.01;100.00;64805.59;5050213;28;20025;-55
2022/09/17 06:08:42;;;;;;;19.15;3.15;;;;;;;-145.01;100.00;64805.59;5065071;28;20028;-54
2022/09/17 06:11:07;;;;;;;18.33;3.58;;;;;;;-145.01;100.00;64805.59;5049590;28;20028;-55
2022/09/17 06:13:33;;;;;;;16.98;3.03;;;;;;;-145.01;100.00;64805.59;5054664;28;20032;-54
2022/09/17 06:15:58;;;;;;;21.10;3.70;;;;;;;-145.01;100.00;64805.59;5049804;28;20483;-55
2022/09/17 06:18:24;;;;;;;19.08;3.55;;;;;;;-145.01;100.00;64805.59;5053129;28;20025;-54
2022/09/17 06:20:56;;;;;;;15.23;3.55;;;;;;;-145.01;100.00;64805.59;5047149;28;20017;-56
2022/09/17 06:23:23;;;;;;;14.88;3.70;;;;;;;-145.01;100.00;64805.59;5053930;28;20439;-56
2022/09/17 06:25:56;;;;;;;19.33;3.38;;;;;;;-145.01;100.00;64805.59;5048079;28;20097;-55
2022/09/17 06:28:22;;;;;;;13.73;3.38;;;;;;;-145.01;100.00;64805.59;5049649;28;20115;-57
2022/09/17 06:30:47;;;;;;;19.58;3.60;;;;;;;-145.01;100.00;64805.59;5047901;28;20025;-56
2022/09/17 06:33:13;;;;;;;20.63;3.00;;;;;;;-145.01;100.00;64805.59;5047968;28;20086;-54
2022/09/17 06:35:38;;;;;;;14.48;2.97;;;;;;;-145.01;100.00;64805.59;5048906;28;20052;-55
2022/09/17 06:38:04;;;;;;;16.77;3.28;;;;;;;-145.01;100.00;64805.59;5049499;28;20378;-55
2022/09/17 06:40:30;;;;;;;22.92;3.92;;;;;;;-145.01;100.00;64805.59;5049638;28;20120;-55
2022/09/17 06:42:58;;;;;;;14.90;2.67;;;;;;;-145.01;100.00;64805.59;5061200;28;20032;-55
2022/09/17 06:45:27;;;;;;;21.40;3.90;;;;;;;-145.01;100.00;64805.59;5058093;28;20025;-54
2022/09/17 06:47:52;;;;;;;12.98;2.70;;;;;;;-145.01;100.00;64805.59;5052346;28;20029;-54
2022/09/17 06:50:18;;;;;;;9.50;2.15;;;;;;;-145.01;100.00;64805.59;5055917;28;20055;-54
2022/09/17 06:52:50;;;;;;;17.33;3.13;;;;;;;-145.01;100.00;64805.59;5048914;28;20079;-55
2022/09/17 06:55:16;;;;;;;10.40;2.30;;;;;;;-145.01;100.00;64805.59;5053010;28;20051;-55
2022/09/17 06:57:41;;;;;;;9.07;2.20;;;;;;;-145.01;100.00;64805.59;5049888;28;20043;-55
2022/09/17 07:00:08;;;;;;;12.45;2.80;;;;;;;-145.01;100.00;64805.59;5088740;28;20024;-55
2022/09/17 07:02:33;;;;;;;14.38;2.60;;;;;;;-145.01;100.00;64805.59;5057244;28;20027;-54
2022/09/17 07:04:59;;;;;;;10.02;2.42;;;;;;;-145.01;100.00;64805.59;5056993;28;20040;-55
2022/09/17 07:07:24;;;;;;;10.88;2.10;;;;;;;-145.01;100.00;64805.59;5058099;28;20036;-55
2022/09/17 07:09:51;;;;;;;9.57;2.28;;;;;;;-145.01;100.00;64805.59;5052152;28;20051;-54
2022/09/17 07:12:16;;;;;;;15.05;2.90;;;;;;;-145.01;100.00;64805.59;5057130;28;20102;-55
2022/09/17 07:14:42;;;;;;;10.68;2.20;;;;;;;-145.01;100.00;64805.59;5053089;28;20029;-53
2022/09/17 07:17:07;;;;;;;14.02;2.35;;;;;;;-145.01;100.00;64805.59;5060170;28;20033;-54
2022/09/17 07:19:33;;;;;;;10.45;1.85;;;;;;;-145.01;100.00;64805.59;5054463;28;20070;-54
2022/09/17 07:21:59;;;;;;;15.75;2.63;;;;;;;-145.01;100.00;64805.59;5051261;28;20099;-54
2022/09/17 07:24:24;;;;;;;12.75;2.08;;;;;;;-145.01;100.00;64805.59;5051487;28;20036;-55
2022/09/17 07:26:50;;;;;;;9.82;2.17;;;;;;;-145.01;100.00;64805.59;5054534;28;20024;-55
2022/09/17 07:29:16;;;;;;;14.02;2.30;;;;;;;-145.01;100.00;64805.59;5053249;28;20087;-54
2022/09/17 07:31:41;;;;;;;14.38;2.75;;;;;;;-145.01;100.00;64805.59;5054674;28;20025;-54
2022/09/17 07:34:08;;;;;;;12.02;2.03;;;;;;;-145.01;100.00;64805.59;5057029;28;20028;-52
2022/09/17 07:36:33;;;;;;;13.43;2.00;;;;;;;-145.01;100.00;64805.59;5084145;28;20033;-55
2022/09/17 07:38:59;;;;;;;8.98;2.20;;;;;;;-145.01;100.00;64805.59;5051784;28;20114;-57
2022/09/17 07:41:24;;;;;;;8.40;2.10;;;;;;;-145.01;100.00;64805.59;5087465;28;20360;-54
2022/09/17 07:43:51;;;;;;;13.07;2.30;;;;;;;-145.01;100.00;64805.59;5053608;28;20033;-55
2022/09/17 07:46:17;;;;;;;15.00;2.30;;;;;;;-145.01;100.00;64805.59;5051070;28;20025;-55
2022/09/17 07:48:43;;;;;;;12.73;2.20;;;;;;;-145.01;100.00;64805.59;5057787;28;20032;-56
2022/09/17 07:51:14;;;;;;;15.40;2.17;;;;;;;-145.01;100.00;64805.59;5058540;28;20025;-54
2022/09/17 07:53:40;;;;;;;9.00;1.92;;;;;;;-145.01;100.00;64805.59;5057486;28;20066;-54
2022/09/17 07:56:06;;;;;;;16.95;2.28;;;;;;;-145.01;100.00;64805.59;5056477;28;20044;-54
2022/09/17 07:58:33;;;;;;;12.57;2.00;;;;;;;-145.01;100.00;64805.59;5054392;28;20420;-56
2022/09/17 08:01:02;;;;;;;13.45;2.53;;;;;;;-145.01;100.00;64805.59;5056481;28;20101;-56
2022/09/17 08:03:28;;;;;;;12.07;1.95;;;;;;;-145.01;100.00;64805.59;5056676;28;20517;-56
2022/09/17 08:05:59;;;;;;;11.52;2.60;;;;;;;-145.01;100.00;64805.59;5058232;28;20017;-54
2022/09/17 08:08:24;;;;;;;11.00;2.00;;;;;;;-145.01;100.00;64805.59;5054635;28;20029;-54
2022/09/17 08:10:50;;;;;;;11.80;2.20;;;;;;;-145.01;100.00;64805.59;5055487;28;20564;-55
2022/09/17 08:13:15;;;;;;;11.57;2.00;;;;;;;-145.01;100.00;64805.59;5049711;28;20032;-55
2022/09/17 08:15:40;;;;;;;14.00;2.30;;;;;;;-145.01;100.00;64805.59;5050641;28;20055;-55
2022/09/17 08:18:06;;;;;;;8.95;1.92;;;;;;;-145.01;100.00;64805.59;5050976;28;20052;-55
2022/09/17 08:20:31;;;;;;;9.40;1.95;;;;;;;-145.01;100.00;64805.59;5050462;28;20033;-56
2022/09/17 08:22:58;;;;;;;12.77;2.17;;;;;;;-145.01;100.00;64805.59;5050963;28;20450;-56
2022/09/17 08:25:24;;;;;;;10.20;2.10;;;;;;;-145.01;100.00;64805.59;5050496;28;20043;-54
2022/09/17 08:27:53;;;;;;;13.57;2.38;;;;;;;-145.01;100.00;64805.59;5054769;28;20017;-54
2022/09/17 08:30:19;;;;;;;10.10;2.00;;;;;;;-145.01;100.00;64805.59;5059236;28;20081;-54
2022/09/17 08:32:44;;;;;;;15.52;2.70;;;;;;;-145.01;100.00;64805.59;5055362;28;20383;-53
2022/09/17 08:35:10;;;;;;;13.68;2.40;;;;;;;-145.01;100.00;64805.59;5056783;28;20028;-54
2022/09/17 08:37:36;;;;;;;13.25;2.15;;;;;;;-145.01;100.00;64805.59;5053730;28;20028;-54
2022/09/17 08:40:01;;;;;;;14.32;2.78;;;;;;;-145.01;100.00;64805.59;5050108;28;20013;-54
2022/09/17 08:42:31;;;;;;;9.18;2.13;;;;;;;-145.01;100.00;64805.59;5050127;28;20061;-54
2022/09/17 08:44:57;;;;;;;13.20;2.10;;;;;;;-145.01;100.00;64805.59;5071083;28;20024;-53
2022/09/17 08:47:35;;;;;;;11.00;2.28;;;;;;;-145.01;100.00;64805.59;5048990;28;20029;-55
2022/09/17 08:50:04;;;;;;;13.40;2.17;;;;;;;-145.01;100.00;64805.59;5060839;28;20086;-53
2022/09/17 08:52:52;;;;;;;10.38;2.58;;;;;;;-145.01;100.00;64805.59;5057408;28;20013;-55
2022/09/17 08:55:28;;;;;;;18.05;2.90;;;;;;;-145.01;100.00;64805.59;5050357;28;20052;-51
2022/09/17 08:58:15;;;;;;;11.32;2.25;;;;;;;-145.01;100.00;64805.59;5055543;28;20020;-53
2022/09/17 09:00:49;;;;;;;12.50;2.40;;;;;;;-145.01;100.00;64805.59;5050057;28;20036;-53
2022/09/17 09:03:28;;;;;;;11.65;2.13;;;;;;;-145.01;100.00;64805.59;5056120;28;20040;-54
2022/09/17 09:05:56;;;;;;;10.73;2.33;;;;;;;-145.01;100.00;64805.59;5055316;28;20035;-54
2022/09/17 09:08:36;;;;;;;15.27;2.63;;;;;;;-145.01;100.00;64805.59;5064898;28;20078;-54
2022/09/17 09:11:04;;;;;;;26.73;3.10;;;;;;;-145.01;100.00;64805.59;5050208;28;20024;-54
2022/09/17 09:13:35;;;;;;;14.60;2.13;;;;;;;-145.01;100.00;64805.59;5068462;28;20374;-54
2022/09/17 09:16:02;;;;;;;7.30;1.98;;;;;;;-145.01;100.00;64805.59;5049875;28;20024;-53
2022/09/17 09:18:34;;;;;;;9.80;2.00;;;;;;;-145.01;100.00;64805.59;5053818;28;20033;-56
2022/09/17 09:21:04;;;;;;;8.38;2.45;;;;;;;-145.01;100.00;64805.59;5053047;28;20107;-55
2022/09/17 09:23:53;;;;;;;14.40;1.90;;;;;;;-145.01;100.00;64805.59;5049235;28;20059;-54
2022/09/17 09:26:19;;;;;;;23.35;2.90;;;;;;;-145.01;100.00;64805.59;5051122;28;20025;-55
2022/09/17 09:28:45;;;;;;;18.38;2.20;;;;;;;-145.01;100.00;64805.59;5055037;28;20044;-54
2022/09/17 09:31:25;;;;;;;9.40;2.47;;;;;;;-145.01;100.00;64805.59;5049757;28;20055;-55
2022/09/17 09:33:51;;;;;;;13.80;1.90;;;;;;;-145.01;100.00;64805.59;5051527;28;20040;-55
2022/09/17 09:36:20;;;;;;;7.30;1.55;;;;;;;-145.01;100.00;64805.59;5054537;28;20033;-53
2022/09/17 09:38:56;;;;;;;8.50;2.08;;;;;;;-145.01;100.00;64805.59;5054676;28;20033;-52
2022/09/17 09:41:26;;;;;;;10.48;1.92;;;;;;;-145.01;100.00;64805.59;5050863;28;20033;-54
2022/09/17 09:44:08;;;;;;;7.35;1.65;;;;;;;-145.01;100.00;64805.59;5050415;28;20099;-54
2022/09/17 09:46:52;;;;;;;7.95;1.83;;;;;;;-145.01;100.00;64805.59;5052435;28;20550;-54
2022/09/17 09:49:20;;;;;;;7.60;1.88;;;;;;;-145.01;100.00;64805.59;5048622;28;20037;-54
2022/09/17 09:52:32;;;;;;;6.63;1.60;;;;;;;-145.01;100.00;64805.59;5048482;28;20100;-55
2022/09/17 09:55:20;;;;;;;8.18;1.90;;;;;;;-145.01;100.00;64805.59;5020698;28;20047;-54
2022/09/17 09:57:47;;;;;;;5.40;1.25;;;;;;;-145.01;100.00;64805.59;5053723;28;20028;-54
2022/09/17 10:00:35;;;;;;;7.90;2.08;;;;;;;-145.01;100.00;64805.59;5049768;28;20031;-53
2022/09/17 10:03:15;;;;;;;5.15;1.42;;;;;;;-145.01;100.00;64805.59;5048734;28;20167;-54
2022/09/17 10:05:51;;;;;;;;;;;;;;;-145.01;100.00;64805.59;5080529;28;20116;-54
2022/09/17 10:08:16;;;;;;;5.57;1.70;;;;;;;-145.01;100.00;64805.59;5053729;28;19979;-55
2022/09/17 10:11:00;;;;;;;9.25;1.80;;;;;;;-145.01;100.00;64805.59;5053804;28;20464;-54
2022/09/17 10:13:26;;;;;;;6.95;1.80;;;;;;;-145.01;100.00;64805.59;5053869;28;20031;-55
2022/09/17 10:15:52;;;;;;;8.73;1.92;;;;;;;-145.01;100.00;64805.59;5052622;28;20032;-54
2022/09/17 10:18:19;;;;;;;6.35;1.95;;;;;;;-145.01;100.00;64805.59;5052816;28;20029;-53
2022/09/17 10:20:52;;;;;;;8.13;1.70;;;;;;;-145.01;100.00;64805.59;5084419;28;20025;-54
2022/09/17 10:23:18;;;;;;;8.60;2.17;;;;;;;-145.01;100.00;64805.59;5048481;28;20032;-55
2022/09/17 10:25:43;;;;;;;5.03;1.88;;;;;;;-145.01;100.00;64805.59;5050267;28;20135;-55
2022/09/17 10:28:27;;;;;;;5.55;1.30;;;;;;;-145.01;100.00;64805.59;5055394;28;20483;-55
2022/09/17 10:30:59;;;;;;;6.20;1.73;;;;;;;-145.01;100.00;64805.59;5056985;28;20107;-53
2022/09/17 10:33:30;;;;;;;4.55;1.73;;;;;;;-145.01;100.00;64805.59;5055193;28;20027;-54
2022/09/17 10:36:07;;;;;;;8.98;1.90;;;;;;;-145.01;100.00;64805.59;5059989;28;20028;-53
2022/09/17 10:38:51;;;;;;;7.15;1.73;;;;;;;-145.01;100.00;64805.59;5018225;28;20036;-53
2022/09/17 10:41:23;;;;;;;6.35;1.50;;;;;;;-145.01;100.00;64805.59;5083633;28;20172;-53
2022/09/17 10:43:49;;;;;;;7.90;1.52;;;;;;;-145.01;100.00;64805.59;5050615;28;20042;-54
2022/09/17 10:46:33;;;;;;;4.82;1.17;;;;;;;-145.01;100.00;64805.59;5055921;28;20029;-53
2022/09/17 10:49:10;;;;;;;6.60;1.60;;;;;;;-145.01;100.00;64805.59;5050750;28;20481;-54
2022/09/17 10:51:36;;;;;;;5.38;1.33;;;;;;;-145.01;100.00;64805.59;5060042;28;20025;-53
2022/09/17 10:54:43;;;;;;;5.20;1.52;;;;;;;-145.01;100.00;64805.59;5084609;28;20037;-53
2022/09/17 10:57:08;;;;;;;7.80;1.70;;;;;;;-145.01;100.00;64805.59;5058140;28;20121;-54
2022/09/17 10:59:37;;;;;;;5.22;1.30;;;;;;;-145.01;100.00;64805.59;5050349;28;20017;-54
2022/09/17 11:02:28;;;;;;;7.38;1.73;;;;;;;-145.01;100.00;64805.59;5061730;28;20032;-53
2022/09/17 11:05:17;;;;;;;9.90;1.52;;;;;;;-145.01;100.00;64805.59;5053826;28;20036;-54
2022/09/17 11:07:46;;;;;;;5.97;1.40;;;;;;;-145.01;100.00;64805.59;5051308;28;20036;-53
2022/09/17 11:10:27;;;;;;;12.45;1.52;;;;;;;-145.01;100.00;64805.59;5057927;28;20079;-54
2022/09/17 11:12:58;;;;;;;6.78;1.58;;;;;;;-145.01;100.00;64805.59;5056690;28;20472;-53
2022/09/17 11:15:31;;;;;;;3.38;1.40;;;;;;;-145.01;100.00;64805.59;5050914;28;20021;-54
2022/09/17 11:18:15;;;;;;;7.43;1.70;;;;;;;-145.01;100.00;64805.59;5057740;28;20024;-53